sensor_id;sensor_type;location;lat;lon;timestamp;P1;durP1;ratioP1;P2;durP2;ratioP2
21564;SDS011;10943;48.738;9.320;2022-11-20T00:00:49;12.75;;;8.13;;
21564;SDS011;10943;48.738;9.320;2022-11-20T00:03:21;11.50;;;7.88;;
21564;SDS011;10943;48.738;9.320;2022-11-20T00:05:53;14.35;;;7.82;;
21564;SDS011;10943;48.738;9.320;2022-11-20T00:08:23;13.05;;;7.57;;
21564;SDS011;10943;48.738;9.320;2022-11-20T00:11:02;11.68;;;7.65;;
21564;SDS011;10943;48.738;9.320;2022-11-20T00:13:45;12.98;;;7.65;;
21564;SDS011;10943;48.738;9.320;2022-11-20T00:17:02;10.80;;;6.97;;
21564;SDS011;10943;48.738;9.320;2022-11-20T00:19:36;10.98;;;7.18;;
21564;SDS011;10943;48.738;9.320;2022-11-20T00:22:11;11.82;;;7.45;;
21564;SDS011;10943;48.738;9.320;2022-11-20T00:24:52;10.35;;;7.30;;
21564;SDS011;10943;48.738;9.320;2022-11-20T00:28:19;11.35;;;7.00;;
21564;SDS011;10943;48.738;9.320;2022-11-20T00:31:00;10.05;;;6.97;;
21564;SDS011;10943;48.738;9.320;2022-11-20T00:34:03;10.23;;;7.37;;
21564;SDS011;10943;48.738;9.320;2022-11-20T00:36:38;11.00;;;7.18;;
21564;SDS011;10943;48.738;9.320;2022-11-20T00:39:06;11.98;;;7.22;;
21564;SDS011;10943;48.738;9.320;2022-11-20T00:42:07;9.35;;;6.78;;
21564;SDS011;10943;48.738;9.320;2022-11-20T00:45:31;10.82;;;7.80;;
21564;SDS011;10943;48.738;9.320;2022-11-20T00:48:01;10.15;;;7.20;;
21564;SDS011;10943;48.738;9.320;2022-11-20T00:50:32;11.07;;;6.75;;
21564;SDS011;10943;48.738;9.320;2022-11-20T00:54:06;11.88;;;6.70;;
21564;SDS011;10943;48.738;9.320;2022-11-20T00:56:37;11.60;;;7.53;;
21564;SDS011;10943;48.738;9.320;2022-11-20T00:59:20;9.65;;;6.93;;
21564;SDS011;10943;48.738;9.320;2022-11-20T01:01:47;9.48;;;6.85;;
21564;SDS011;10943;48.738;9.320;2022-11-20T01:04:15;10.60;;;6.75;;
21564;SDS011;10943;48.738;9.320;2022-11-20T01:06:43;9.07;;;6.78;;
21564;SDS011;10943;48.738;9.320;2022-11-20T01:09:14;10.93;;;6.65;;
21564;SDS011;10943;48.738;9.320;2022-11-20T01:11:46;9.35;;;6.32;;
21564;SDS011;10943;48.738;9.320;2022-11-20T01:14:47;10.35;;;5.80;;
21564;SDS011;10943;48.738;9.320;2022-11-20T01:17:15;9.05;;;5.97;;
21564;SDS011;10943;48.738;9.320;2022-11-20T01:19:45;9.88;;;6.53;;
21564;SDS011;10943;48.738;9.320;2022-11-20T01:22:32;7.72;;;4.95;;
21564;SDS011;10943;48.738;9.320;2022-11-20T01:25:06;7.75;;;4.78;;
21564;SDS011;10943;48.738;9.320;2022-11-20T01:28:02;10.43;;;4.90;;
21564;SDS011;10943;48.738;9.320;2022-11-20T01:33:54;7.07;;;4.28;;
21564;SDS011;10943;48.738;9.320;2022-11-20T01:36:28;6.68;;;4.35;;
21564;SDS011;10943;48.738;9.320;2022-11-20T01:39:00;8.27;;;4.80;;
21564;SDS011;10943;48.738;9.320;2022-11-20T01:41:37;6.93;;;3.85;;
21564;SDS011;10943;48.738;9.320;2022-11-20T01:47:21;7.30;;;3.83;;
21564;SDS011;10943;48.738;9.320;2022-11-20T01:50:06;5.93;;;3.17;;
21564;SDS011;10943;48.738;9.320;2022-11-20T01:53:07;5.90;;;3.28;;
21564;SDS011;10943;48.738;9.320;2022-11-20T01:55:45;6.25;;;3.40;;
21564;SDS011;10943;48.738;9.320;2022-11-20T01:58:22;5.55;;;3.10;;
21564;SDS011;10943;48.738;9.320;2022-11-20T02:01:03;5.75;;;3.60;;
21564;SDS011;10943;48.738;9.320;2022-11-20T02:03:31;5.05;;;2.97;;
21564;SDS011;10943;48.738;9.320;2022-11-20T02:06:02;9.07;;;3.10;;
21564;SDS011;10943;48.738;9.320;2022-11-20T02:08:48;6.78;;;3.35;;
21564;SDS011;10943;48.738;9.320;2022-11-20T02:11:31;5.68;;;3.63;;
21564;SDS011;10943;48.738;9.320;2022-11-20T02:13:59;4.75;;;3.03;;
21564;SDS011;10943;48.738;9.320;2022-11-20T02:16:28;6.25;;;3.47;;
21564;SDS011;10943;48.738;9.320;2022-11-20T02:19:27;5.68;;;3.08;;
21564;SDS011;10943;48.738;9.320;2022-11-20T02:22:00;5.93;;;3.03;;
21564;SDS011;10943;48.738;9.320;2022-11-20T02:25:27;6.05;;;3.17;;
21564;SDS011;10943;48.738;9.320;2022-11-20T02:28:03;5.05;;;2.80;;
21564;SDS011;10943;48.738;9.320;2022-11-20T02:30:37;5.78;;;3.40;;
21564;SDS011;10943;48.738;9.320;2022-11-20T02:33:08;6.38;;;3.40;;
21564;SDS011;10943;48.738;9.320;2022-11-20T02:35:51;4.80;;;3.13;;
21564;SDS011;10943;48.738;9.320;2022-11-20T02:38:40;5.85;;;3.30;;
21564;SDS011;10943;48.738;9.320;2022-11-20T02:41:21;5.82;;;3.30;;
21564;SDS011;10943;48.738;9.320;2022-11-20T02:44:24;5.45;;;3.10;;
21564;SDS011;10943;48.738;9.320;2022-11-20T02:46:51;5.30;;;3.08;;
21564;SDS011;10943;48.738;9.320;2022-11-20T02:49:19;5.47;;;2.85;;
21564;SDS011;10943;48.738;9.320;2022-11-20T02:51:47;5.70;;;2.97;;
21564;SDS011;10943;48.738;9.320;2022-11-20T02:54:23;7.60;;;3.25;;
21564;SDS011;10943;48.738;9.320;2022-11-20T02:56:54;6.07;;;3.08;;
21564;SDS011;10943;48.738;9.320;2022-11-20T02:59:24;6.97;;;2.83;;
21564;SDS011;10943;48.738;9.320;2022-11-20T03:01:58;6.85;;;3.47;;
21564;SDS011;10943;48.738;9.320;2022-11-20T03:04:33;7.13;;;3.28;;
21564;SDS011;10943;48.738;9.320;2022-11-20T03:07:00;6.50;;;3.42;;
21564;SDS011;10943;48.738;9.320;2022-11-20T03:09:45;5.32;;;3.00;;
21564;SDS011;10943;48.738;9.320;2022-11-20T03:12:17;5.20;;;3.22;;
21564;SDS011;10943;48.738;9.320;2022-11-20T03:14:46;5.63;;;3.25;;
21564;SDS011;10943;48.738;9.320;2022-11-20T03:17:18;5.63;;;3.38;;
21564;SDS011;10943;48.738;9.320;2022-11-20T03:19:46;5.55;;;3.53;;
21564;SDS011;10943;48.738;9.320;2022-11-20T03:22:13;7.15;;;3.72;;
21564;SDS011;10943;48.738;9.320;2022-11-20T03:25:10;7.53;;;3.97;;
21564;SDS011;10943;48.738;9.320;2022-11-20T03:27:38;5.93;;;3.38;;
21564;SDS011;10943;48.738;9.320;2022-11-20T03:30:47;5.78;;;3.90;;
21564;SDS011;10943;48.738;9.320;2022-11-20T03:33:21;6.13;;;3.92;;
21564;SDS011;10943;48.738;9.320;2022-11-20T03:36:38;7.03;;;3.70;;
21564;SDS011;10943;48.738;9.320;2022-11-20T03:39:07;7.05;;;3.97;;
21564;SDS011;10943;48.738;9.320;2022-11-20T03:41:39;7.35;;;3.70;;
21564;SDS011;10943;48.738;9.320;2022-11-20T03:44:23;6.88;;;3.55;;
21564;SDS011;10943;48.738;9.320;2022-11-20T03:46:52;7.97;;;3.50;;
21564;SDS011;10943;48.738;9.320;2022-11-20T03:49:20;7.00;;;3.63;;
21564;SDS011;10943;48.738;9.320;2022-11-20T03:51:49;5.07;;;3.08;;
21564;SDS011;10943;48.738;9.320;2022-11-20T03:54:20;5.63;;;3.10;;
21564;SDS011;10943;48.738;9.320;2022-11-20T03:56:47;5.13;;;3.05;;
21564;SDS011;10943;48.738;9.320;2022-11-20T03:59:18;6.45;;;3.28;;
21564;SDS011;10943;48.738;9.320;2022-11-20T04:01:55;6.15;;;3.30;;
21564;SDS011;10943;48.738;9.320;2022-11-20T04:04:23;5.47;;;2.90;;
21564;SDS011;10943;48.738;9.320;2022-11-20T04:06:51;5.50;;;2.90;;
21564;SDS011;10943;48.738;9.320;2022-11-20T04:09:28;6.30;;;3.10;;
21564;SDS011;10943;48.738;9.320;2022-11-20T04:11:59;5.28;;;2.78;;
21564;SDS011;10943;48.738;9.320;2022-11-20T04:14:30;5.43;;;2.97;;
21564;SDS011;10943;48.738;9.320;2022-11-20T04:17:00;5.60;;;2.80;;
21564;SDS011;10943;48.738;9.320;2022-11-20T04:20:13;4.63;;;2.53;;
21564;SDS011;10943;48.738;9.320;2022-11-20T04:22:44;7.22;;;3.20;;
21564;SDS011;10943;48.738;9.320;2022-11-20T04:25:15;7.57;;;3.53;;
21564;SDS011;10943;48.738;9.320;2022-11-20T04:28:09;8.02;;;3.10;;
21564;SDS011;10943;48.738;9.320;2022-11-20T04:31:11;6.75;;;2.70;;
21564;SDS011;10943;48.738;9.320;2022-11-20T04:33:52;5.30;;;2.70;;
21564;SDS011;10943;48.738;9.320;2022-11-20T04:36:22;5.15;;;3.00;;
21564;SDS011;10943;48.738;9.320;2022-11-20T04:39:29;6.47;;;3.00;;
21564;SDS011;10943;48.738;9.320;2022-11-20T04:41:57;5.45;;;2.80;;
21564;SDS011;10943;48.738;9.320;2022-11-20T04:44:54;5.63;;;2.50;;
21564;SDS011;10943;48.738;9.320;2022-11-20T04:47:44;4.97;;;2.47;;
21564;SDS011;10943;48.738;9.320;2022-11-20T04:50:11;4.65;;;2.58;;
21564;SDS011;10943;48.738;9.320;2022-11-20T04:52:38;4.88;;;2.60;;
21564;SDS011;10943;48.738;9.320;2022-11-20T04:55:06;6.30;;;2.80;;
21564;SDS011;10943;48.738;9.320;2022-11-20T04:57:34;5.18;;;2.60;;
21564;SDS011;10943;48.738;9.320;2022-11-20T05:00:01;3.88;;;2.30;;
21564;SDS011;10943;48.738;9.320;2022-11-20T05:02:30;4.55;;;2.53;;
21564;SDS011;10943;48.738;9.320;2022-11-20T05:04:58;7.97;;;2.97;;
21564;SDS011;10943;48.738;9.320;2022-11-20T05:07:25;5.63;;;2.38;;
21564;SDS011;10943;48.738;9.320;2022-11-20T05:09:53;4.68;;;2.60;;
21564;SDS011;10943;48.738;9.320;2022-11-20T05:12:20;4.78;;;2.67;;
21564;SDS011;10943;48.738;9.320;2022-11-20T05:14:47;5.88;;;2.40;;
21564;SDS011;10943;48.738;9.320;2022-11-20T05:17:15;6.15;;;2.10;;
21564;SDS011;10943;48.738;9.320;2022-11-20T05:19:42;6.03;;;2.67;;
21564;SDS011;10943;48.738;9.320;2022-11-20T05:22:09;4.65;;;2.22;;
21564;SDS011;10943;48.738;9.320;2022-11-20T05:24:36;4.45;;;2.45;;
21564;SDS011;10943;48.738;9.320;2022-11-20T05:27:03;5.00;;;2.63;;
21564;SDS011;10943;48.738;9.320;2022-11-20T05:29:30;6.68;;;2.75;;
21564;SDS011;10943;48.738;9.320;2022-11-20T05:31:58;4.40;;;2.28;;
21564;SDS011;10943;48.738;9.320;2022-11-20T05:34:25;5.57;;;2.50;;
21564;SDS011;10943;48.738;9.320;2022-11-20T05:36:52;5.30;;;2.60;;
21564;SDS011;10943;48.738;9.320;2022-11-20T05:39:19;6.60;;;2.35;;
21564;SDS011;10943;48.738;9.320;2022-11-20T05:41:47;4.22;;;2.25;;
21564;SDS011;10943;48.738;9.320;2022-11-20T05:44:34;4.63;;;2.10;;
21564;SDS011;10943;48.738;9.320;2022-11-20T05:47:01;6.10;;;2.60;;
21564;SDS011;10943;48.738;9.320;2022-11-20T05:49:28;5.70;;;2.10;;
21564;SDS011;10943;48.738;9.320;2022-11-20T05:51:55;4.97;;;2.30;;
21564;SDS011;10943;48.738;9.320;2022-11-20T05:54:23;5.15;;;2.10;;
21564;SDS011;10943;48.738;9.320;2022-11-20T05:56:50;3.67;;;2.10;;
21564;SDS011;10943;48.738;9.320;2022-11-20T05:59:17;3.75;;;2.10;;
21564;SDS011;10943;48.738;9.320;2022-11-20T06:01:45;6.32;;;2.42;;
21564;SDS011;10943;48.738;9.320;2022-11-20T06:04:12;4.70;;;1.92;;
21564;SDS011;10943;48.738;9.320;2022-11-20T06:06:39;3.92;;;2.10;;
21564;SDS011;10943;48.738;9.320;2022-11-20T06:09:06;4.15;;;1.90;;
21564;SDS011;10943;48.738;9.320;2022-11-20T06:11:34;4.80;;;2.10;;
21564;SDS011;10943;48.738;9.320;2022-11-20T06:14:02;4.47;;;1.80;;
21564;SDS011;10943;48.738;9.320;2022-11-20T06:16:30;4.47;;;1.70;;
21564;SDS011;10943;48.738;9.320;2022-11-20T06:18:57;5.35;;;2.10;;
21564;SDS011;10943;48.738;9.320;2022-11-20T06:21:25;5.57;;;1.90;;
21564;SDS011;10943;48.738;9.320;2022-11-20T06:23:52;5.63;;;2.00;;
21564;SDS011;10943;48.738;9.320;2022-11-20T06:26:21;4.10;;;1.98;;
21564;SDS011;10943;48.738;9.320;2022-11-20T06:28:53;3.70;;;2.00;;
21564;SDS011;10943;48.738;9.320;2022-11-20T06:31:23;4.30;;;1.90;;
21564;SDS011;10943;48.738;9.320;2022-11-20T06:33:52;3.75;;;1.77;;
21564;SDS011;10943;48.738;9.320;2022-11-20T06:36:21;5.30;;;2.00;;
21564;SDS011;10943;48.738;9.320;2022-11-20T06:38:49;5.53;;;2.10;;
21564;SDS011;10943;48.738;9.320;2022-11-20T06:41:18;3.40;;;1.77;;
21564;SDS011;10943;48.738;9.320;2022-11-20T06:43:49;4.22;;;2.00;;
21564;SDS011;10943;48.738;9.320;2022-11-20T06:46:17;4.97;;;2.33;;
21564;SDS011;10943;48.738;9.320;2022-11-20T06:48:47;3.45;;;1.75;;
21564;SDS011;10943;48.738;9.320;2022-11-20T06:51:15;4.90;;;1.83;;
21564;SDS011;10943;48.738;9.320;2022-11-20T06:53:48;4.88;;;2.03;;
21564;SDS011;10943;48.738;9.320;2022-11-20T06:56:16;4.10;;;2.20;;
21564;SDS011;10943;48.738;9.320;2022-11-20T06:58:44;4.55;;;2.13;;
21564;SDS011;10943;48.738;9.320;2022-11-20T07:01:12;4.30;;;1.90;;
21564;SDS011;10943;48.738;9.320;2022-11-20T07:03:44;4.60;;;2.00;;
21564;SDS011;10943;48.738;9.320;2022-11-20T07:06:16;5.20;;;2.10;;
21564;SDS011;10943;48.738;9.320;2022-11-20T07:08:44;3.90;;;1.80;;
21564;SDS011;10943;48.738;9.320;2022-11-20T07:11:11;5.85;;;2.90;;
21564;SDS011;10943;48.738;9.320;2022-11-20T07:13:40;5.60;;;2.70;;
21564;SDS011;10943;48.738;9.320;2022-11-20T07:16:07;4.25;;;2.00;;
21564;SDS011;10943;48.738;9.320;2022-11-20T07:18:35;4.60;;;2.05;;
21564;SDS011;10943;48.738;9.320;2022-11-20T07:21:03;4.85;;;2.30;;
21564;SDS011;10943;48.738;9.320;2022-11-20T07:23:36;4.35;;;1.88;;
21564;SDS011;10943;48.738;9.320;2022-11-20T07:26:05;4.30;;;2.03;;
21564;SDS011;10943;48.738;9.320;2022-11-20T07:28:35;3.53;;;1.90;;
21564;SDS011;10943;48.738;9.320;2022-11-20T07:31:04;4.45;;;2.13;;
21564;SDS011;10943;48.738;9.320;2022-11-20T07:33:33;3.65;;;1.83;;
21564;SDS011;10943;48.738;9.320;2022-11-20T07:36:01;4.38;;;2.15;;
21564;SDS011;10943;48.738;9.320;2022-11-20T07:38:28;6.22;;;2.67;;
21564;SDS011;10943;48.738;9.320;2022-11-20T07:41:02;4.35;;;2.05;;
21564;SDS011;10943;48.738;9.320;2022-11-20T07:43:31;3.75;;;1.83;;
21564;SDS011;10943;48.738;9.320;2022-11-20T07:46:08;5.78;;;1.90;;
21564;SDS011;10943;48.738;9.320;2022-11-20T07:48:35;6.97;;;1.80;;
21564;SDS011;10943;48.738;9.320;2022-11-20T07:51:03;4.60;;;1.88;;
21564;SDS011;10943;48.738;9.320;2022-11-20T07:53:31;4.43;;;2.05;;
21564;SDS011;10943;48.738;9.320;2022-11-20T07:56:02;4.30;;;1.67;;
21564;SDS011;10943;48.738;9.320;2022-11-20T07:58:30;4.50;;;2.03;;
21564;SDS011;10943;48.738;9.320;2022-11-20T08:01:06;6.45;;;2.17;;
21564;SDS011;10943;48.738;9.320;2022-11-20T08:03:35;3.83;;;1.90;;
21564;SDS011;10943;48.738;9.320;2022-11-20T08:06:05;4.03;;;2.00;;
21564;SDS011;10943;48.738;9.320;2022-11-20T08:08:33;3.78;;;1.85;;
21564;SDS011;10943;48.738;9.320;2022-11-20T08:11:07;4.05;;;1.90;;
21564;SDS011;10943;48.738;9.320;2022-11-20T08:13:53;4.00;;;1.90;;
21564;SDS011;10943;48.738;9.320;2022-11-20T08:19:10;5.50;;;1.83;;
21564;SDS011;10943;48.738;9.320;2022-11-20T08:21:39;3.63;;;1.90;;
21564;SDS011;10943;48.738;9.320;2022-11-20T08:24:07;6.95;;;3.15;;
21564;SDS011;10943;48.738;9.320;2022-11-20T08:26:37;7.88;;;3.70;;
21564;SDS011;10943;48.738;9.320;2022-11-20T08:29:06;5.10;;;2.42;;
21564;SDS011;10943;48.738;9.320;2022-11-20T08:31:33;4.00;;;2.30;;
21564;SDS011;10943;48.738;9.320;2022-11-20T08:34:01;3.88;;;2.20;;
21564;SDS011;10943;48.738;9.320;2022-11-20T08:36:34;3.95;;;2.20;;
21564;SDS011;10943;48.738;9.320;2022-11-20T08:39:02;5.00;;;2.00;;
21564;SDS011;10943;48.738;9.320;2022-11-20T08:41:30;8.60;;;3.00;;
21564;SDS011;10943;48.738;9.320;2022-11-20T08:44:01;4.18;;;1.63;;
21564;SDS011;10943;48.738;9.320;2022-11-20T08:46:34;6.15;;;2.97;;
21564;SDS011;10943;48.738;9.320;2022-11-20T08:49:08;6.35;;;3.53;;
21564;SDS011;10943;48.738;9.320;2022-11-20T08:51:38;3.60;;;1.70;;
21564;SDS011;10943;48.738;9.320;2022-11-20T08:54:06;4.13;;;1.70;;
21564;SDS011;10943;48.738;9.320;2022-11-20T08:56:34;3.90;;;1.67;;
21564;SDS011;10943;48.738;9.320;2022-11-20T08:59:02;4.85;;;1.80;;
21564;SDS011;10943;48.738;9.320;2022-11-20T09:01:49;3.40;;;1.70;;
21564;SDS011;10943;48.738;9.320;2022-11-20T09:04:17;5.03;;;1.75;;
21564;SDS011;10943;48.738;9.320;2022-11-20T09:06:44;3.88;;;1.70;;
21564;SDS011;10943;48.738;9.320;2022-11-20T09:09:12;3.20;;;1.42;;
21564;SDS011;10943;48.738;9.320;2022-11-20T09:11:39;5.50;;;2.00;;
21564;SDS011;10943;48.738;9.320;2022-11-20T09:14:07;3.92;;;1.65;;
21564;SDS011;10943;48.738;9.320;2022-11-20T09:16:35;3.92;;;1.80;;
21564;SDS011;10943;48.738;9.320;2022-11-20T09:19:02;3.45;;;1.55;;
21564;SDS011;10943;48.738;9.320;2022-11-20T09:21:51;4.45;;;1.70;;
21564;SDS011;10943;48.738;9.320;2022-11-20T09:24:25;5.78;;;2.78;;
21564;SDS011;10943;48.738;9.320;2022-11-20T09:26:54;3.30;;;1.33;;
21564;SDS011;10943;48.738;9.320;2022-11-20T09:29:22;3.45;;;1.55;;
21564;SDS011;10943;48.738;9.320;2022-11-20T09:31:50;4.15;;;1.30;;
21564;SDS011;10943;48.738;9.320;2022-11-20T09:34:17;3.95;;;1.20;;
21564;SDS011;10943;48.738;9.320;2022-11-20T09:36:44;3.58;;;1.23;;
21564;SDS011;10943;48.738;9.320;2022-11-20T09:39:12;3.42;;;1.20;;
21564;SDS011;10943;48.738;9.320;2022-11-20T09:56:21;2.47;;;0.73;;
21564;SDS011;10943;48.738;9.320;2022-11-20T09:58:50;1.80;;;0.65;;
21564;SDS011;10943;48.738;9.320;2022-11-20T10:01:26;4.65;;;1.70;;
21564;SDS011;10943;48.738;9.320;2022-11-20T10:04:03;2.88;;;0.90;;
21564;SDS011;10943;48.738;9.320;2022-11-20T10:06:44;1.90;;;0.80;;
21564;SDS011;10943;48.738;9.320;2022-11-20T10:09:51;2.45;;;0.70;;
21564;SDS011;10943;48.738;9.320;2022-11-20T10:19:06;3.10;;;1.00;;
21564;SDS011;10943;48.738;9.320;2022-11-20T10:22:22;3.13;;;1.23;;
21564;SDS011;10943;48.738;9.320;2022-11-20T10:25:22;2.53;;;0.93;;
21564;SDS011;10943;48.738;9.320;2022-11-20T10:32:04;3.40;;;1.00;;
21564;SDS011;10943;48.738;9.320;2022-11-20T10:37:31;2.70;;;1.17;;
21564;SDS011;10943;48.738;9.320;2022-11-20T10:42:37;2.92;;;1.10;;
21564;SDS011;10943;48.738;9.320;2022-11-20T10:45:18;2.83;;;0.80;;
21564;SDS011;10943;48.738;9.320;2022-11-20T10:47:52;2.42;;;1.00;;
21564;SDS011;10943;48.738;9.320;2022-11-20T10:51:02;2.97;;;1.15;;
21564;SDS011;10943;48.738;9.320;2022-11-20T11:01:25;3.00;;;1.00;;
21564;SDS011;10943;48.738;9.320;2022-11-20T11:03:54;4.63;;;1.10;;
21564;SDS011;10943;48.738;9.320;2022-11-20T11:09:04;5.05;;;1.08;;
21564;SDS011;10943;48.738;9.320;2022-11-20T11:11:50;4.68;;;0.90;;
21564;SDS011;10943;48.738;9.320;2022-11-20T11:14:23;3.10;;;1.25;;
21564;SDS011;10943;48.738;9.320;2022-11-20T11:16:53;3.25;;;1.02;;
21564;SDS011;10943;48.738;9.320;2022-11-20T11:19:24;2.75;;;1.00;;
21564;SDS011;10943;48.738;9.320;2022-11-20T11:21:54;3.15;;;0.98;;
21564;SDS011;10943;48.738;9.320;2022-11-20T11:24:24;2.70;;;1.05;;
21564;SDS011;10943;48.738;9.320;2022-11-20T11:27:12;3.22;;;0.90;;
21564;SDS011;10943;48.738;9.320;2022-11-20T11:29:45;2.72;;;1.00;;
21564;SDS011;10943;48.738;9.320;2022-11-20T11:32:20;2.72;;;0.98;;
21564;SDS011;10943;48.738;9.320;2022-11-20T11:35:02;2.60;;;1.00;;
21564;SDS011;10943;48.738;9.320;2022-11-20T11:37:34;4.10;;;1.00;;
21564;SDS011;10943;48.738;9.320;2022-11-20T11:40:06;2.70;;;1.10;;
21564;SDS011;10943;48.738;9.320;2022-11-20T11:42:56;2.10;;;0.90;;
21564;SDS011;10943;48.738;9.320;2022-11-20T11:45:29;4.40;;;1.60;;
21564;SDS011;10943;48.738;9.320;2022-11-20T11:47:57;3.60;;;1.70;;
21564;SDS011;10943;48.738;9.320;2022-11-20T11:50:30;2.95;;;1.30;;
21564;SDS011;10943;48.738;9.320;2022-11-20T11:53:15;3.58;;;1.20;;
21564;SDS011;10943;48.738;9.320;2022-11-20T11:56:05;3.13;;;1.30;;
21564;SDS011;10943;48.738;9.320;2022-11-20T11:58:43;3.13;;;1.40;;
21564;SDS011;10943;48.738;9.320;2022-11-20T12:01:37;3.60;;;1.33;;
21564;SDS011;10943;48.738;9.320;2022-11-20T12:07:33;2.53;;;0.88;;
21564;SDS011;10943;48.738;9.320;2022-11-20T12:10:20;3.05;;;1.00;;
21564;SDS011;10943;48.738;9.320;2022-11-20T12:13:02;3.40;;;0.90;;
21564;SDS011;10943;48.738;9.320;2022-11-20T12:16:11;5.35;;;1.00;;
21564;SDS011;10943;48.738;9.320;2022-11-20T12:18:44;4.07;;;1.00;;
21564;SDS011;10943;48.738;9.320;2022-11-20T12:30:17;4.40;;;1.00;;
21564;SDS011;10943;48.738;9.320;2022-11-20T12:33:18;3.63;;;1.05;;
21564;SDS011;10943;48.738;9.320;2022-11-20T12:53:29;3.97;;;1.40;;
21564;SDS011;10943;48.738;9.320;2022-11-20T13:02:44;4.10;;;1.00;;
21564;SDS011;10943;48.738;9.320;2022-11-20T13:08:47;2.90;;;0.80;;
21564;SDS011;10943;48.738;9.320;2022-11-20T13:14:32;4.43;;;1.02;;
21564;SDS011;10943;48.738;9.320;2022-11-20T13:20:35;4.10;;;0.80;;
21564;SDS011;10943;48.738;9.320;2022-11-20T13:23:34;3.10;;;0.90;;
21564;SDS011;10943;48.738;9.320;2022-11-20T13:26:06;3.35;;;1.25;;
21564;SDS011;10943;48.738;9.320;2022-11-20T13:29:09;5.00;;;1.00;;
21564;SDS011;10943;48.738;9.320;2022-11-20T13:32:02;3.60;;;0.90;;
21564;SDS011;10943;48.738;9.320;2022-11-20T13:34:59;3.72;;;0.88;;
21564;SDS011;10943;48.738;9.320;2022-11-20T13:38:06;3.10;;;1.10;;
21564;SDS011;10943;48.738;9.320;2022-11-20T13:41:34;3.10;;;0.70;;
21564;SDS011;10943;48.738;9.320;2022-11-20T13:44:13;3.72;;;0.73;;
21564;SDS011;10943;48.738;9.320;2022-11-20T13:47:01;2.05;;;0.80;;
21564;SDS011;10943;48.738;9.320;2022-11-20T13:49:52;3.45;;;0.70;;
21564;SDS011;10943;48.738;9.320;2022-11-20T13:55:38;5.05;;;1.13;;
21564;SDS011;10943;48.738;9.320;2022-11-20T14:01:48;3.25;;;0.90;;
21564;SDS011;10943;48.738;9.320;2022-11-20T14:04:54;3.42;;;0.90;;
21564;SDS011;10943;48.738;9.320;2022-11-20T14:08:22;2.35;;;0.63;;
21564;SDS011;10943;48.738;9.320;2022-11-20T14:11:47;2.58;;;0.80;;
21564;SDS011;10943;48.738;9.320;2022-11-20T14:14:20;3.97;;;0.90;;
21564;SDS011;10943;48.738;9.320;2022-11-20T14:17:21;4.50;;;1.17;;
21564;SDS011;10943;48.738;9.320;2022-11-20T14:20:04;3.95;;;0.90;;
21564;SDS011;10943;48.738;9.320;2022-11-20T14:22:47;4.97;;;1.10;;
21564;SDS011;10943;48.738;9.320;2022-11-20T14:28:03;6.55;;;1.15;;
21564;SDS011;10943;48.738;9.320;2022-11-20T14:31:08;5.05;;;1.00;;
21564;SDS011;10943;48.738;9.320;2022-11-20T14:33:54;3.58;;;1.05;;
21564;SDS011;10943;48.738;9.320;2022-11-20T14:36:23;5.20;;;1.17;;
21564;SDS011;10943;48.738;9.320;2022-11-20T14:39:52;4.53;;;1.17;;
21564;SDS011;10943;48.738;9.320;2022-11-20T14:42:23;3.92;;;0.70;;
21564;SDS011;10943;48.738;9.320;2022-11-20T14:45:11;4.97;;;1.20;;
21564;SDS011;10943;48.738;9.320;2022-11-20T14:47:39;3.92;;;1.27;;
21564;SDS011;10943;48.738;9.320;2022-11-20T14:50:27;4.97;;;1.10;;
21564;SDS011;10943;48.738;9.320;2022-11-20T14:53:31;4.38;;;1.20;;
21564;SDS011;10943;48.738;9.320;2022-11-20T14:56:57;3.97;;;0.88;;
21564;SDS011;10943;48.738;9.320;2022-11-20T14:59:29;4.05;;;1.08;;
21564;SDS011;10943;48.738;9.320;2022-11-20T15:02:20;3.63;;;1.05;;
21564;SDS011;10943;48.738;9.320;2022-11-20T15:05:48;4.10;;;1.50;;
21564;SDS011;10943;48.738;9.320;2022-11-20T15:09:05;3.15;;;1.02;;
21564;SDS011;10943;48.738;9.320;2022-11-20T15:12:01;5.20;;;1.23;;
21564;SDS011;10943;48.738;9.320;2022-11-20T15:14:34;3.90;;;1.40;;
21564;SDS011;10943;48.738;9.320;2022-11-20T15:17:07;5.45;;;1.30;;
21564;SDS011;10943;48.738;9.320;2022-11-20T15:19:52;6.53;;;1.88;;
21564;SDS011;10943;48.738;9.320;2022-11-20T15:22:51;5.50;;;1.35;;
21564;SDS011;10943;48.738;9.320;2022-11-20T15:25:18;4.03;;;1.52;;
21564;SDS011;10943;48.738;9.320;2022-11-20T15:30:59;3.35;;;1.10;;
21564;SDS011;10943;48.738;9.320;2022-11-20T15:33:55;3.17;;;1.08;;
21564;SDS011;10943;48.738;9.320;2022-11-20T15:36:28;4.15;;;1.55;;
21564;SDS011;10943;48.738;9.320;2022-11-20T15:39:10;3.58;;;1.33;;
21564;SDS011;10943;48.738;9.320;2022-11-20T15:41:47;4.45;;;1.42;;
21564;SDS011;10943;48.738;9.320;2022-11-20T15:44:18;4.30;;;1.40;;
21564;SDS011;10943;48.738;9.320;2022-11-20T15:46:47;3.85;;;1.48;;
21564;SDS011;10943;48.738;9.320;2022-11-20T15:49:23;4.78;;;1.10;;
21564;SDS011;10943;48.738;9.320;2022-11-20T15:51:55;5.88;;;1.55;;
21564;SDS011;10943;48.738;9.320;2022-11-20T15:55:04;3.15;;;1.30;;
21564;SDS011;10943;48.738;9.320;2022-11-20T15:58:34;3.30;;;1.40;;
21564;SDS011;10943;48.738;9.320;2022-11-20T16:01:11;4.10;;;1.42;;
21564;SDS011;10943;48.738;9.320;2022-11-20T16:03:51;3.97;;;1.60;;
21564;SDS011;10943;48.738;9.320;2022-11-20T16:06:22;3.80;;;1.50;;
21564;SDS011;10943;48.738;9.320;2022-11-20T16:08:57;3.67;;;1.30;;
21564;SDS011;10943;48.738;9.320;2022-11-20T16:11:29;5.00;;;1.70;;
21564;SDS011;10943;48.738;9.320;2022-11-20T16:14:00;3.85;;;1.65;;
21564;SDS011;10943;48.738;9.320;2022-11-20T16:16:48;5.25;;;1.88;;
21564;SDS011;10943;48.738;9.320;2022-11-20T16:19:16;4.75;;;2.38;;
21564;SDS011;10943;48.738;9.320;2022-11-20T16:27:04;4.57;;;2.20;;
21564;SDS011;10943;48.738;9.320;2022-11-20T16:29:53;4.22;;;1.83;;
21564;SDS011;10943;48.738;9.320;2022-11-20T16:32:25;4.97;;;2.20;;
21564;SDS011;10943;48.738;9.320;2022-11-20T16:34:53;5.05;;;2.10;;
21564;SDS011;10943;48.738;9.320;2022-11-20T16:37:36;4.38;;;1.98;;
21564;SDS011;10943;48.738;9.320;2022-11-20T16:40:12;6.20;;;2.03;;
21564;SDS011;10943;48.738;9.320;2022-11-20T16:42:47;5.30;;;2.25;;
21564;SDS011;10943;48.738;9.320;2022-11-20T16:45:43;5.35;;;2.40;;
21564;SDS011;10943;48.738;9.320;2022-11-20T16:48:15;4.75;;;2.53;;
21564;SDS011;10943;48.738;9.320;2022-11-20T16:50:56;5.22;;;2.28;;
21564;SDS011;10943;48.738;9.320;2022-11-20T16:53:38;3.83;;;1.85;;
21564;SDS011;10943;48.738;9.320;2022-11-20T16:56:16;7.10;;;2.40;;
21564;SDS011;10943;48.738;9.320;2022-11-20T16:58:50;5.50;;;2.40;;
21564;SDS011;10943;48.738;9.320;2022-11-20T17:01:23;4.45;;;1.83;;
21564;SDS011;10943;48.738;9.320;2022-11-20T17:04:12;5.32;;;2.10;;
21564;SDS011;10943;48.738;9.320;2022-11-20T17:07:02;11.40;;;5.47;;
21564;SDS011;10943;48.738;9.320;2022-11-20T17:10:11;11.23;;;5.05;;
21564;SDS011;10943;48.738;9.320;2022-11-20T17:12:45;6.25;;;3.30;;
21564;SDS011;10943;48.738;9.320;2022-11-20T17:15:15;7.93;;;4.53;;
21564;SDS011;10943;48.738;9.320;2022-11-20T17:18:13;7.60;;;4.72;;
21564;SDS011;10943;48.738;9.320;2022-11-20T17:20:50;7.70;;;4.13;;
21564;SDS011;10943;48.738;9.320;2022-11-20T17:23:28;6.22;;;3.75;;
21564;SDS011;10943;48.738;9.320;2022-11-20T17:26:48;7.15;;;4.10;;
21564;SDS011;10943;48.738;9.320;2022-11-20T17:29:34;8.50;;;4.90;;
21564;SDS011;10943;48.738;9.320;2022-11-20T17:32:10;8.38;;;3.72;;
21564;SDS011;10943;48.738;9.320;2022-11-20T17:34:57;6.97;;;3.30;;
21564;SDS011;10943;48.738;9.320;2022-11-20T17:37:48;6.88;;;3.42;;
21564;SDS011;10943;48.738;9.320;2022-11-20T17:40:20;8.95;;;3.88;;
21564;SDS011;10943;48.738;9.320;2022-11-20T17:42:56;6.55;;;3.00;;
21564;SDS011;10943;48.738;9.320;2022-11-20T17:45:51;5.95;;;2.40;;